Latest Weather Observations for Beaudesert AWS

IDQ60901

Issued at 9:51 pm EST Friday 3 July 2015 (issued every 10 minutes, with the page automatically refreshed every 10 minutes)

About weather observations | Map of Brisbane area stations | Latest observations for Brisbane area | Other Formats
Station Details ID: 040983 Name: BEAUDESERT DRUMLEY STREET Lat: -27.97 Lon: 152.99 Height: 47.81 m
Data from the previous 72 hours. | See also: Recent months at Beaudesert AWS
Date/Time
EST
Tmp

°C
App
Tmp
°C
Dew
Point
°C
Rel
Hum
%
Delta-T

°C
Wind Press
QNH
hPa
Press
MSL
hPa
Rain
since
9 am
mm
Dir
 
Spd
km/h
Gust
km/h
Spd
kts
Gust
kts
03/09:30pm 9.0 7.9 7.0 87 0.9 SE 2 4 1 2 1024.0 1024.0 0.0
03/09:00pm 7.0 5.8 4.8 86 1.0 CALM 0 0 0 0 1023.8 1023.8 0.0
03/08:30pm 7.5 6.5 5.5 87 0.9 CALM 0 0 0 0 1023.6 1023.6 0.0
03/08:00pm 8.2 7.2 5.5 83 1.2 CALM 0 0 0 0 1023.7 1023.7 0.0
03/07:30pm 9.2 8.3 6.1 81 1.4 CALM 0 0 0 0 1023.4 1023.4 0.0
03/07:00pm 10.7 10.0 7.0 78 1.8 CALM 0 0 0 0 1023.2 1023.2 0.0
03/06:00pm 13.4 12.6 6.3 62 3.4 CALM 0 0 0 0 1022.5 1022.6 0.0
03/05:30pm 14.1 12.5 6.5 60 3.7 SSE 4 6 2 3 1022.3 1022.4 0.0
03/05:00pm 15.3 13.3 6.3 55 4.3 S 6 11 3 6 1022.0 1022.1 0.0
03/04:30pm 16.8 14.7 6.6 51 5.0 SSW 7 15 4 8 1021.7 1021.8 0.0
03/04:00pm 17.7 14.8 6.3 47 5.6 SSW 11 19 6 10 1021.5 1021.6 0.0
03/03:30pm 18.2 14.8 6.1 45 6.0 SSW 13 20 7 11 1021.2 1021.2 0.0
03/03:00pm 18.8 15.8 6.0 43 6.3 SW 11 17 6 9 1021.0 1021.0 0.0
03/02:30pm 18.6 14.5 6.1 44 6.2 SW 17 22 9 12 1021.0 1021.0 0.0
03/02:00pm 19.0 15.0 6.5 44 6.2 SW 17 24 9 13 1021.0 1021.0 0.0
03/01:30pm 18.4 13.8 5.6 43 6.3 SW 19 28 10 15 1021.2 1021.2 0.0
03/01:00pm 18.1 13.5 5.7 44 6.0 WSW 19 26 10 14 1021.4 1021.4 0.0
03/12:30pm 17.5 13.0 4.1 41 6.3 SSW 17 26 9 14 1021.8 1021.9 0.0
03/12:00pm 17.3 12.4 4.3 42 6.1 SW 19 28 10 15 1022.2 1022.3 0.0
03/11:30am 17.1 12.0 3.1 39 6.4 SW 19 32 10 17 1022.5 1022.6 0.0
03/11:00am 16.6 12.1 2.2 38 6.4 S 15 22 8 12 1023.1 1023.1 0.0
03/10:30am 16.3 11.1 2.7 40 6.2 SW 19 26 10 14 1023.3 1023.3 0.0
03/10:00am 15.9 11.4 2.0 39 6.2 S 15 28 8 15 1023.5 1023.5 0.0
03/09:30am 14.7 10.7 2.6 44 5.4 SSW 13 22 7 12 1023.4 1023.4 0.0
03/09:00am 13.1 9.1 2.6 49 4.6 SW 13 19 7 10 1023.3 1023.3 0.0
03/08:30am 11.7 8.8 2.5 53 4.0 SSW 7 13 4 7 1023.2 1023.2 0.0
03/08:00am 10.3 8.0 2.7 59 3.3 S 4 11 2 6 1022.6 1022.7 0.0
03/07:30am 8.8 6.0 2.2 63 2.8 S 6 9 3 5 1022.4 1022.5 0.0
03/07:00am 7.0 4.4 1.1 66 2.4 SE 4 7 2 4 1022.0 1022.1 0.0
03/06:30am 7.4 4.8 1.0 64 2.6 S 4 7 2 4 1021.7 1021.8 0.0
03/06:00am 8.1 5.6 1.5 63 2.7 ESE 4 7 2 4 1021.3 1021.3 0.0
03/05:30am 7.5 5.1 2.2 69 2.2 ESE 4 6 2 3 1020.9 1020.9 0.0
03/05:00am 6.9 4.5 2.0 71 2.0 S 4 11 2 6 1020.6 1020.6 0.0
03/04:30am 5.2 3.4 1.0 74 1.6 CALM 0 6 0 3 1020.3 1020.3 0.0
03/04:00am 6.3 4.0 2.6 77 1.5 SW 4 6 2 3 1020.2 1020.2 0.0
03/03:30am 6.7 4.5 3.1 78 1.5 SSE 4 7 2 4 1020.1 1020.1 0.0
03/03:00am 4.3 2.2 1.8 84 1.0 ENE 2 6 1 3 1020.3 1020.3 0.0
03/02:30am 4.5 2.8 1.7 82 1.1 CALM 0 0 0 0 1020.5 1020.5 0.0
03/02:00am 5.3 3.6 2.0 79 1.3 CALM 0 0 0 0 1020.4 1020.4 0.0
03/01:30am 6.1 4.4 1.8 74 1.7 CALM 0 0 0 0 1020.5 1020.5 0.0
03/01:00am 6.1 3.3 1.8 74 1.7 N 6 9 3 5 1020.6 1020.6 0.0
03/12:30am 6.2 3.0 0.7 68 2.2 SW 7 11 4 6 1020.5 1020.5 0.0
03/12:00am 6.8 3.3 1.5 69 2.1 SW 9 15 5 8 1020.6 1020.6 0.0
 
Date/Time
EST
Tmp

°C
App
Tmp
°C
Dew
Point
°C
Rel
Hum
%
Delta-T

°C
Wind Press
QNH
hPa
Press
MSL
hPa
Rain
since
9 am
mm
Dir
 
Spd
km/h
Gust
km/h
Spd
kts
Gust
kts
02/11:30pm 5.5 3.4 1.8 77 1.5 SSW 2 4 1 2 1020.7 1020.7 0.0
02/11:00pm 4.0 1.4 0.7 79 1.3 WNW 4 7 2 4 1020.8 1020.8 0.0
02/10:30pm 7.0 4.8 3.4 78 1.5 E 4 6 2 3 1020.9 1020.9 0.0
02/10:00pm 3.4 1.6 1.3 86 0.8 CALM 0 0 0 0 1020.7 1020.7 0.0
02/09:30pm 3.3 1.1 1.0 85 0.9 SSE 2 6 1 3 1020.5 1020.5 0.0
02/09:00pm 5.1 3.6 3.0 86 0.9 CALM 0 0 0 0 1020.0 1020.0 0.0
02/08:30pm 4.5 2.8 1.9 83 1.0 CALM 0 0 0 0 1020.0 1020.0 0.0
02/08:00pm 5.7 4.1 2.5 80 1.3 CALM 0 0 0 0 1019.7 1019.7 0.0
02/07:30pm 6.7 5.0 2.0 72 1.9 CALM 0 0 0 0 1019.2 1019.2 0.0
02/07:00pm 8.7 7.3 3.7 71 2.2 CALM 0 4 0 2 1018.6 1018.6 0.0
02/06:30pm 10.4 8.6 3.2 61 3.1 NW 2 4 1 2 1018.6 1018.6 0.0
02/06:00pm 12.9 10.1 2.2 48 4.6 N 6 7 3 4 1018.4 1018.4 0.0
02/05:30pm 15.0 12.6 2.2 42 5.7 NNW 4 6 2 3 1018.2 1018.2 0.0
02/05:00pm 15.9 13.1 2.3 40 6.1 W 6 9 3 5 1018.0 1018.0 0.0
02/04:30pm 17.4 14.6 1.8 35 7.0 WNW 6 9 3 5 1017.8 1017.8 0.0
02/04:00pm 18.0 14.7 2.7 36 7.0 W 9 13 5 7 1017.5 1017.5 0.0
02/03:30pm 20.1 17.1 4.2 35 7.7 W 9 13 5 7 1017.5 1017.5 0.0
02/03:00pm 20.7 18.1 5.9 38 7.4 W 9 13 5 7 1017.4 1017.4 0.0
02/02:30pm 18.8 15.7 5.6 42 6.5 WNW 11 20 6 11 1017.8 1017.8 0.0
02/02:00pm 19.8 17.1 7.2 44 6.4 WNW 11 19 6 10 1017.9 1017.9 0.0
02/01:30pm 19.1 15.7 5.9 42 6.5 NW 13 20 7 11 1017.8 1017.8 0.0
02/01:00pm 19.3 17.2 8.3 49 5.7 WNW 9 17 5 9 1018.5 1018.5 0.0
02/12:30pm 19.1 17.1 8.7 51 5.4 NNW 9 17 5 9 1018.5 1018.5 0.0
02/12:00pm 18.9 17.1 9.4 54 5.0 NNW 9 15 5 8 1019.2 1019.2 0.0
02/11:30am 18.1 16.9 9.5 57 4.5 W 6 9 3 5 1020.1 1020.1 0.0
02/11:00am 17.4 17.2 10.3 63 3.8 NW 2 7 1 4 1021.0 1021.0 0.0
02/10:30am 17.0 16.4 10.4 65 3.5 NW 4 6 2 3 1021.5 1021.6 0.0
02/10:00am 15.8 15.7 10.8 72 2.7 NNW 2 6 1 3 1022.0 1022.1 0.0
02/09:30am 13.8 14.1 11.0 83 1.5 CALM 0 0 0 0 1022.6 1022.7 0.0
02/09:00am 11.8 12.1 10.9 94 0.5 CALM 0 2 0 1 1022.5 1022.6 1.2
02/08:30am 9.6 9.4 9.0 96 0.3 CALM 0 0 0 0 1022.0 1022.1 1.2
02/08:00am 7.5 6.8 6.9 96 0.3 CALM 0 0 0 0 1022.3 1022.4 1.2
02/07:30am 5.0 3.7 4.3 95 0.3 CALM 0 4 0 2 1021.9 1022.0 1.2
02/07:00am 4.3 2.9 3.4 94 0.4 CALM 0 0 0 0 1021.5 1021.6 1.2
02/06:30am 4.6 3.2 3.7 94 0.4 CALM 0 0 0 0 1021.4 1021.4 1.2
02/06:00am 5.3 4.1 4.4 94 0.4 CALM 0 0 0 0 1021.3 1021.3 1.2
02/05:30am 7.2 6.0 6.5 95 0.3 E 2 4 1 2 1020.8 1020.8 1.2
02/05:00am 5.9 4.8 5.0 94 0.4 CALM 0 0 0 0 1021.0 1021.0 1.2
02/04:30am 5.9 4.8 5.0 94 0.4 CALM 0 0 0 0 1020.9 1020.9 1.2
02/04:00am 6.5 5.5 5.6 94 0.4 CALM 0 0 0 0 1020.9 1020.9 1.2
02/03:30am 7.7 7.0 7.0 95 0.3 CALM 0 2 0 1 1021.1 1021.1 1.2
02/03:00am 7.3 6.5 6.6 95 0.3 CALM 0 0 0 0 1021.0 1021.0 1.2
02/02:30am 6.5 5.5 5.5 93 0.4 CALM 0 0 0 0 1021.1 1021.1 1.2
02/02:00am 7.3 6.4 6.1 92 0.5 CALM 0 0 0 0 1021.4 1021.4 1.2
02/01:30am 8.4 7.8 7.5 94 0.4 CALM 0 0 0 0 1021.4 1021.4 1.2
02/01:00am 9.5 9.2 8.7 95 0.4 CALM 0 0 0 0 1021.6 1021.7 1.2
02/12:30am 10.4 10.0 9.6 95 0.4 E 2 4 1 2 1021.8 1021.9 1.2
02/12:00am 8.4 7.8 7.3 93 0.5 CALM 0 0 0 0 1022.1 1022.2 1.2
 
Date/Time
EST
Tmp

°C
App
Tmp
°C
Dew
Point
°C
Rel
Hum
%
Delta-T

°C
Wind Press
QNH
hPa
Press
MSL
hPa
Rain
since
9 am
mm
Dir
 
Spd
km/h
Gust
km/h
Spd
kts
Gust
kts
01/11:30pm 10.2 9.7 9.3 94 0.4 SSE 2 4 1 2 1022.2 1022.3 1.2
01/11:00pm 9.8 9.5 8.7 93 0.5 CALM 0 0 0 0 1022.3 1022.4 1.2
01/10:30pm 10.8 10.8 9.7 93 0.6 CALM 0 0 0 0 1022.4 1022.5 1.2
01/10:00pm 11.5 11.7 10.4 93 0.6 CALM 0 0 0 0 1022.4 1022.5 1.2
01/09:30pm 12.7 12.8 11.6 93 0.6 E 2 4 1 2 1022.5 1022.6 1.2
01/09:00pm 12.4 12.4 11.1 92 0.7 SE 2 4 1 2 1022.6 1022.7 1.2
01/08:30pm 12.9 13.4 11.5 91 0.7 CALM 0 0 0 0 1022.2 1022.3 1.2
01/08:00pm 13.2 13.6 11.1 87 1.1 CALM 0 0 0 0 1022.0 1022.1 1.2
01/07:30pm 14.7 15.4 12.2 85 1.4 CALM 0 0 0 0 1021.8 1021.9 1.2
01/07:00pm 15.4 16.2 12.5 83 1.6 CALM 0 0 0 0 1021.7 1021.8 1.2
01/06:30pm 16.0 17.0 13.1 83 1.6 CALM 0 0 0 0 1021.2 1021.2 1.2
01/06:00pm 15.9 16.7 12.6 81 1.8 CALM 0 4 0 2 1020.8 1020.8 1.2
01/05:30pm 17.3 18.1 13.6 79 2.1 NNW 2 6 1 3 1020.4 1020.4 1.2
01/05:00pm 18.8 19.3 13.9 73 2.8 ENE 4 7 2 4 1020.4 1020.4 1.2
01/04:30pm 19.9 20.4 12.9 64 4.0 NNE 2 4 1 2 1020.1 1020.1 1.2
01/04:00pm 22.4 23.4 13.2 56 5.3 CALM 0 2 0 1 1020.1 1020.1 1.2
01/03:30pm 21.7 23.2 14.6 64 4.2 CALM 0 4 0 2 1020.1 1020.1 1.2
01/03:00pm 19.9 20.9 15.3 75 2.7 NE 4 6 2 3 1020.4 1020.4 1.2
01/02:30pm 18.7 19.6 15.0 79 2.2 ENE 4 6 2 3 1020.5 1020.5 1.2
01/02:00pm 20.4 21.3 14.1 67 3.6 SSE 2 4 1 2 1020.8 1020.8 0.6
01/01:30pm 21.6 21.7 11.6 53 5.6 NE 2 6 1 3 1020.9 1020.9 0.0
01/01:00pm 21.9 21.5 12.5 55 5.3 NW 6 13 3 7 1021.4 1021.4 0.0
01/12:30pm 21.2 21.4 13.1 60 4.6 WSW 4 11 2 6 1021.9 1022.0 0.0
01/12:00pm 20.8 21.2 12.5 59 4.7 WNW 2 6 1 3 1022.6 1022.7 0.0
01/11:30am 20.0 20.2 13.2 65 3.9 NW 4 7 2 4 1023.4 1023.4 0.0
01/11:00am 19.4 19.4 13.6 69 3.3 SW 6 11 3 6 1024.0 1024.0 0.0
01/10:30am 17.5 18.6 13.4 77 2.3 CALM 0 0 0 0 1024.4 1024.4 0.0
01/10:00am 16.5 17.1 13.2 81 1.8 NNW 2 4 1 2 1024.8 1024.8 0.0
01/09:30am 15.3 15.5 13.0 86 1.3 SW 4 6 2 3 1024.9 1024.8 0.0
01/09:00am 14.7 15.0 12.2 85 1.4 SW 2 4 1 2 1024.7 1024.6 0.2
01/08:30am 13.3 13.1 11.7 90 0.9 SSW 4 6 2 3 1024.7 1024.6 0.2
01/08:00am 12.4 12.5 11.5 94 0.5 SW 2 6 1 3 1024.7 1024.6 0.2
01/07:30am 11.6 11.5 10.8 95 0.4 NE 2 4 1 2 1024.4 1024.3 0.2
01/07:00am 10.0 9.8 9.1 94 0.4 CALM 0 0 0 0 1024.2 1024.1 0.2
01/06:30am 9.5 9.2 8.6 94 0.4 CALM 0 0 0 0 1024.0 1023.9 0.2
01/06:00am 10.1 10.0 9.3 95 0.4 CALM 0 0 0 0 1023.6 1023.5 0.2
01/05:30am 9.6 9.3 8.5 93 0.5 CALM 0 0 0 0 1023.5 1023.4 0.2
01/05:00am 10.6 10.6 9.8 95 0.4 CALM 0 0 0 0 1023.3 1023.2 0.2
01/04:30am 10.8 10.5 10.0 95 0.4 E 2 4 1 2 1023.3 1023.2 0.2
01/04:00am 10.5 10.1 9.6 94 0.4 ESE 2 4 1 2 1023.6 1023.5 0.2
01/03:30am 10.6 10.2 9.7 94 0.5 E 2 4 1 2 1023.7 1023.6 0.2
01/03:00am 10.5 10.0 9.4 93 0.5 SW 2 4 1 2 1023.9 1023.8 0.2
01/02:30am 11.2 10.6 10.4 95 0.4 ESE 4 6 2 3 1024.3 1024.2 0.2
01/02:00am 11.0 11.1 10.1 94 0.5 CALM 0 0 0 0 1024.8 1024.7 0.2
01/01:30am 11.0 11.1 10.1 94 0.5 CALM 0 0 0 0 1024.8 1024.7 0.2
01/01:00am 10.7 10.6 9.6 93 0.6 CALM 0 0 0 0 1024.9 1024.8 0.2
01/12:30am 11.1 10.8 10.2 94 0.5 SSE 2 4 1 2 1025.1 1025.0 0.2
01/12:00am 11.2 11.0 10.3 94 0.5 SE 2 4 1 2 1025.2 1025.1 0.2
 
Date/Time
EST
Tmp

°C
App
Tmp
°C
Dew
Point
°C
Rel
Hum
%
Delta-T

°C
Wind Press
QNH
hPa
Press
MSL
hPa
Rain
since
9 am
mm
Dir
 
Spd
km/h
Gust
km/h
Spd
kts
Gust
kts
30/11:30pm 10.9 10.9 9.7 92 0.6 CALM 0 0 0 0 1025.4 1025.3 0.2
30/11:00pm 11.9 11.9 11.0 94 0.5 ESE 2 4 1 2 1025.4 1025.3 0.2
30/10:30pm 11.9 12.1 10.6 92 0.7 CALM 0 2 0 1 1025.5 1025.4 0.2
30/10:00pm 12.6 13.0 11.3 92 0.7 CALM 0 0 0 0 1025.6 1025.6 0.2

Latest Capital City Observations: Canberra | Sydney | Melbourne | Brisbane | Adelaide | Perth | Hobart | Darwin

Other Formats:

Comma delimited format used in spreadsheet applications
http://www.bom.gov.au/fwo/IDQ60901/IDQ60901.95575.axf

JavaScript Object Notation format (JSON) in row-major order
http://www.bom.gov.au/fwo/IDQ60901/IDQ60901.95575.json